Soddy Daisy, TN (37379)

12:47 AM EST on February 12, 2016 (GMT -0500)
Shady Grove | | Change Station
CLOSE
Current Station
Personal Weather Station
Location: Soddy-Daisy, TN
Elevation: 797 ft
Nearby Weather Stations

Elev 797 ft 35.26 °N, 85.12 °W | Updated 36 seconds ago

Partly Cloudy
Partly Cloudy
31.0 °F
Feels Like 31 °F
N
0.0
Wind Variable Wind from NW
Gusts 0.0 mph

Today
High -- | Low -- °F
--% Chance of Precip.
Yesterday
High -- | Low -- °F
Precip. -- in
Pressure 30.24 in
Visibility 10.0 miles
Clouds Scattered Clouds 19000 ft
Scattered Clouds 25000 ft
Windchill 31 °F
Dew Point 28 °F
Humidity 87%
Rainfall 0.00 in
Snow Depth Not available.
7:30 AM 6:19 PM
Waxing Crescent, 17% visible
METAR KCHA 120453Z 01005KT 10SM SCT190 SCT250 02/M04 A3023 RMK AO2 SLP239 LAST T00171044 400831028
Pressure 30.24 in
Visibility 10.0 miles
Clouds Scattered Clouds 19000 ft
Scattered Clouds 25000 ft
Windchill 31 °F
Dew Point 28 °F
Humidity 87%
Rainfall 0.00 in
Snow Depth Not available.
7:30 AM 6:19 PM
Waxing Crescent, 17% visible
METAR KCHA 120453Z 01005KT 10SM SCT190 SCT250 02/M04 A3023 RMK AO2 SLP239 LAST T00171044 400831028

10-Day Weather Forecast

Almanac

Astronomy

Feb. 12, 2016 Rise Set
Actual Time
Civil Twilight
Nautical Twilight
Astronomical Twilight
Moon
Length of Visible Light
Length of Day
Tomorrow will be .
, % of the Moon is Illuminated

Today's Extremes

State Highs State Lows

Community

WunderPhotos

Upload Photos

1,892,269 photos uploaded!

WunderBlog® & News

Nearby

Air Quality

  Air Quality AQ Index Pollutant
Not available.

Snow Depth

Station Depth Elevation

Earthquake Activity

City Distance Mag. Time & Date
Minimum magnitude displayed is 2.5.

Coastal Water Temperatures

Place Temperature

Stations

Nearby Weather Stations

Station Location Temp. Windchill Dew Point Humidity Wind Precip. Elev Updated Type
                   

Watches & Warnings

There are currently no watches in effect.